Flight Track Log - Related Links

Times and Time Zones

All times are in EDT time to prevent confusion due to time zone crossing. See the N717AN flight status page for this flight to view local times or setup timezone preferences in your user account.

Time Position Orientation Groundspeed Altitude Reporting Facility
EDT Latitude Longitude Course Direction KTS MPH feet Rate Location/Type
Tue 05:49:13 AM 51.4680 -0.4420 90° East 13 15  Level FlightAware ADS-B
Tue 05:50:25 AM 51.4680 -0.4380 90° East 15 17 240 Level FlightAware ADS-B
Tue 05:51:24 AM 51.4680 -0.4370 90° East 13 15 275 Level FlightAware ADS-B
Tue 05:54:00 AM 51.5429 -0.8847 290° West  Level FlightAware Approximate
Tue 05:55:00 AM 51.5748 -1.0528 286° West  Level FlightAware Approximate
Tue 05:56:00 AM 51.5999 -1.2239 282° West  Level FlightAware Approximate
Tue 05:57:00 AM 51.6333 -1.3702 270° West  Level FlightAware Approximate
Tue 05:58:00 AM 51.6529 -1.5418 286° West  Level FlightAware Approximate
Tue 05:58:47 AM 51.4634 -0.5455 267° West 189 217 2,300  Level FlightAware ADS-B
Tue 05:59:02 AM 51.4629 -0.5666 268° West 189 217 2,800 2,087 Climbing FlightAware ADS-B
Tue 05:59:10 AM 51.4626 -0.5786 268° West 191 220 3,100 1,500 Climbing FlightAware ADS-B
Tue 05:59:26 AM 51.4622 -0.6013 268° West 201 231 3,400 1,091 Climbing FlightAware ADS-B
Tue 05:59:32 AM 51.4619 -0.6111 267° West 205 236 3,500 1,091 Climbing FlightAware ADS-B
Tue 05:59:37 AM 51.4614 -0.6185 264° West 208 239 3,600 1,333 Climbing FlightAware ADS-B
Tue 05:59:41 AM 51.4607 -0.6250 260° West 211 243 3,700 1,263 Climbing FlightAware ADS-B
Tue 05:59:56 AM 51.4580 -0.6483 259° West 223 257 4,000 1,615 Climbing FlightAware ADS-B
Tue 06:00:07 AM 51.4562 -0.6669 261° West 229 264 4,400 1,680 Climbing FlightAware ADS-B
Tue 06:00:21 AM 51.4543 -0.6908 263° West 240 276 4,700 1,680 Climbing FlightAware ADS-B
Tue 06:00:32 AM 51.4528 -0.7110 263° West 245 282 5,100 2,444 Climbing FlightAware ADS-B
Tue 06:00:48 AM 51.4505 -0.7392 263° West 246 283 5,800 2,323 Climbing FlightAware ADS-B
Tue 06:01:03 AM 51.4482 -0.7671 262° West 248 285 6,300 2,129 Climbing FlightAware ADS-B
Tue 06:01:19 AM 51.4457 -0.7950 262° West 250 288 6,900 2,400 Climbing FlightAware ADS-B
Tue 06:01:33 AM 51.4435 -0.8220 263° West 252 290 7,500 2,200 Climbing FlightAware ADS-B
Tue 06:01:49 AM 51.4412 -0.8504 263° West 257 296 8,000 2,129 Climbing FlightAware ADS-B
Tue 06:02:04 AM 51.4388 -0.8788 262° West 258 297 8,600 2,323 Climbing FlightAware ADS-B
Tue 06:02:20 AM 51.4362 -0.9088 262° West 259 298 9,200 2,323 Climbing FlightAware ADS-B
Tue 06:02:35 AM 51.4340 -0.9380 263° West 261 300 9,800 2,483 Climbing FlightAware ADS-B
Tue 06:02:49 AM 51.4317 -0.9638 262° West 258 297 10,400 2,250 Climbing FlightAware ADS-B
Tue 06:02:59 AM 51.4300 -0.9850 263° West 266 306 10,700 1,765 Climbing FlightAware ADS-B
Tue 06:03:06 AM 51.4301 -0.9986 271° West 274 315 10,900 1,000 Climbing FlightAware ADS-B
Tue 06:03:11 AM 51.4308 -1.0074 277° West 280 322 10,900 750 Level FlightAware ADS-B
Tue 06:03:14 AM 51.4319 -1.0154 282° West 285 328 11,000 1,500 Climbing FlightAware ADS-B
Tue 06:03:19 AM 51.4335 -1.0243 286° West 291 335 11,100 1,371 Climbing FlightAware ADS-B
Tue 06:03:49 AM 51.4523 -1.0880 295° West 327 376 11,800 1,869 Climbing FlightAware ADS-B
Tue 06:04:20 AM 51.4747 -1.1570 298° West 345 397 13,000 2,192 Climbing FlightAware ADS-B
Tue 06:04:41 AM 51.4895 -1.2049 296° West 351 404 13,700 1,176 Climbing FlightAware ADS-B
Tue 06:05:11 AM 51.5093 -1.2765 294° West 353 406 14,000 400 Climbing FlightAware ADS-B
Tue 06:05:41 AM 51.5285 -1.3475 294° West 346 398 14,100 500 Climbing FlightAware ADS-B
Tue 06:06:11 AM 51.5482 -1.4195 294° West 347 399 14,500 787 Climbing FlightAware ADS-B
Tue 06:06:42 AM 51.5680 -1.4909 294° West 349 402 14,900 984 Climbing FlightAware ADS-B
Tue 06:07:12 AM 51.5877 -1.5623 294° West 348 400 15,500 1,770 Climbing FlightAware ADS-B
Tue 06:07:43 AM 51.6064 -1.6396 291° West 358 412 16,700 2,710 Climbing FlightAware ADS-B
Tue 06:08:14 AM 51.6240 -1.7156 290° West 354 407 18,300 2,754 Climbing FlightAware ADS-B
Tue 06:08:44 AM 51.6419 -1.7909 291° West 362 417 19,500 2,361 Climbing FlightAware ADS-B
Tue 06:09:15 AM 51.6598 -1.8678 291° West 366 421 20,700 1,967 Climbing FlightAware ADS-B
Tue 06:09:45 AM 51.6787 -1.9457 291° West 379 436 21,500 2,190 Climbing FlightAware ADS-B
Tue 06:10:18 AM 51.6996 -2.0332 291° West 378 435 23,000 2,509 Climbing FlightAware ADS-B
Tue 06:10:40 AM 51.7128 -2.0901 291° West 379 436 23,800 2,073 Climbing FlightAware ADS-B
Tue 06:11:13 AM 51.7334 -2.1797 290° West 385 443 24,900 1,800 Climbing FlightAware ADS-B
Tue 06:11:40 AM 51.7500 -2.2510 291° West 391 450 25,600 1,610 Climbing FlightAware ADS-B
Tue 06:11:54 AM 51.7572 -2.2911 286° West 394 453 26,000 1,333 Climbing FlightAware ADS-B
Tue 06:12:07 AM 51.7606 -2.3295 278° West 401 461 26,200 828 Climbing FlightAware ADS-B
Tue 06:12:23 AM 51.7618 -2.3774 272° West 412 474 26,400 643 Climbing FlightAware ADS-B
Tue 06:12:35 AM 51.7612 -2.4137 268° West 419 482 26,500 837 Climbing FlightAware ADS-B
Tue 06:13:06 AM 51.7558 -2.5142 265° West 435 501 27,000 1,065 Climbing FlightAware ADS-B
Tue 06:13:37 AM 51.7497 -2.6149 264° West 445 512 27,600 1,345 Climbing FlightAware ADS-B
Tue 06:14:04 AM 51.7427 -2.7050 263° West 453 521 28,300 1,343 Climbing FlightAware ADS-B
Tue 06:14:44 AM 51.7255 -2.8362 258° West 464 534 29,100 1,606 Climbing FlightAware ADS-B
Tue 06:15:15 AM 51.7112 -2.9424 258° West 461 531 30,200 1,967 Climbing FlightAware ADS-B
Tue 06:15:45 AM 51.6991 -3.0438 259° West 460 529 31,100 1,909 Climbing FlightAware ADS-B
Tue 06:16:21 AM 51.6849 -3.1628 259° West 455 524 32,300 1,944 Climbing FlightAware ADS-B
Tue 06:16:56 AM 51.6706 -3.2778 259° West 445 512 33,400 1,364 Climbing FlightAware ADS-B
Tue 06:17:27 AM 51.6575 -3.3784 258° West 447 514 33,800 480 Climbing FlightAware ADS-B
Tue 06:18:11 AM 51.6400 -3.5160 258° West 443 510 34,000 133 Climbing FlightAware ADS-B
Tue 06:18:57 AM 51.6210 -3.6660 259° West 438 504 34,000  Level FlightAware ADS-B
Tue 06:19:37 AM 51.6040 -3.7930 258° West 438 504 34,000 -83 Level FlightAware ADS-B
Tue 06:20:09 AM 51.5903 -3.8972 258° West 482 555 33,900  Descending FlightAware UK
Tue 06:20:19 AM 51.5870 -3.9260 258° West 438 504 34,000 115 Climbing FlightAware ADS-B
Tue 06:21:01 AM 51.5680 -4.0620 257° West 438 504 34,000  Level FlightAware ADS-B
Tue 06:21:45 AM 51.5420 -4.1990 253° West 443 510 34,000  Level FlightAware ADS-B
Tue 06:22:26 AM 51.5100 -4.3240 248° West 445 512 34,000  Level FlightAware ADS-B
Tue 06:23:05 AM 51.4800 -4.4400 247° West 447 514 34,000  Level FlightAware ADS-B
Tue 06:23:49 AM 51.4450 -4.5740 247° West 447 514 34,000  Level FlightAware ADS-B
Tue 06:24:29 AM 51.4129 -4.6970 247° West 447 514 34,000  Level FlightAware ADS-B
Tue 06:25:08 AM 51.3820 -4.8156 247° West 448 516 34,000 -79 Level FlightAware ADS-B
Tue 06:25:45 AM 51.3518 -4.9305 247° West 484 557 33,900  Descending FlightAware UK
Tue 06:25:49 AM 51.3490 -4.9420 247° West 448 516 34,000  Climbing FlightAware ADS-B
Tue 06:26:21 AM 51.3295 -5.0426 247° West 484 557 33,900  Descending FlightAware UK
Tue 06:26:31 AM 51.3260 -5.0750 247° West 443 510 34,000 125 Climbing FlightAware ADS-B
Tue 06:27:09 AM 51.3140 -5.1950 261° West 443 510 34,000  Level FlightAware ADS-B
Tue 06:27:49 AM 51.3010 -5.3230 261° West 442 509 34,000  Level FlightAware ADS-B
Tue 06:28:29 AM 51.2880 -5.4530 261° West 442 509 34,000  Level FlightAware ADS-B
Tue 06:29:03 AM 51.2766 -5.5641 261° West 484 557 34,000  Level FlightAware UK
Tue 06:29:07 AM 51.2750 -5.5740 261° West 443 510 34,000  Level FlightAware ADS-B
Tue 06:29:55 AM 51.2590 -5.7300 261° West 443 510 34,000  Level FlightAware ADS-B
Tue 06:30:33 AM 51.2459 -5.8533 261° West 486 559 34,000  Level FlightAware UK
Tue 06:30:35 AM 51.2460 -5.8580 261° West 442 509 34,000  Level FlightAware ADS-B
Tue 06:31:09 AM 51.2340 -5.9683 261° West 486 559 34,000  Level FlightAware UK
Tue 06:31:19 AM 51.2310 -6.0010 261° West 442 509 34,000  Level FlightAware ADS-B
Tue 06:31:59 AM 51.2170 -6.1300 260° West 443 510 34,000  Level FlightAware ADS-B
Tue 06:32:39 AM 51.2030 -6.2567 260° West 486 559 34,000  Level FlightAware UK
Tue 06:32:39 AM 51.2030 -6.2550 260° West 441 507 34,000  Level FlightAware ADS-B
Tue 06:33:13 AM 51.1910 -6.3640 260° West 439 505 34,000 -77 Level FlightAware ADS-B
Tue 06:33:57 AM 51.1755 -6.5052 260° West 484 557 33,900  Descending FlightAware UK
Tue 06:33:59 AM 51.1750 -6.5120 260° West 439 505 34,000 143 Climbing FlightAware ADS-B
Tue 06:34:39 AM 51.1610 -6.6390 260° West 438 504 34,000  Level FlightAware ADS-B
Tue 06:35:21 AM 51.1460 -6.7670 259° West 437 503 34,000  Level FlightAware ADS-B
Tue 06:35:57 AM 51.1333 -6.8859 259° West 484 557 34,000  Level FlightAware UK
Tue 06:36:03 AM 51.1310 -6.9030 259° West 437 503 34,000  Level FlightAware ADS-B
Tue 06:36:45 AM 51.1180 -7.0200 260° West 435 501 34,000  Level FlightAware ADS-B
Tue 06:37:27 AM 51.1030 -7.1600 260° West 436 502 34,000 -78 Level FlightAware ADS-B
Tue 06:38:02 AM 51.0895 -7.2825 260° West 484 557 33,900  Descending FlightAware UK
Tue 06:38:02 AM 51.0910 -7.2770 260° West 437 503 34,000  Climbing FlightAware ADS-B
Tue 06:38:32 AM 51.0804 -7.3771 260° West 486 559 33,900  Descending FlightAware UK
Tue 06:38:52 AM 51.0750 -7.4290 260° West 436 502 34,000  Climbing FlightAware ADS-B
Tue 06:39:32 AM 51.0607 -7.5660 260° West 482 555 33,900  Descending FlightAware UK
Tue 06:39:35 AM 51.0600 -7.5700 260° West 435 501 34,000 136 Climbing FlightAware ADS-B
Tue 06:40:16 AM 51.0470 -7.6910 260° West 435 501 34,000 -74 Level FlightAware ADS-B
Tue 06:40:56 AM 51.0323 -7.8299 260° West 484 557 33,900  Descending FlightAware UK
Tue 06:40:59 AM 51.0310 -7.8340 260° West 435 501 34,000 167 Climbing FlightAware ADS-B
Tue 06:41:32 AM 51.0205 -7.9429 260° West 486 559 34,000  Level FlightAware UK
Tue 06:41:35 AM 51.0180 -7.9490 260° West 435 501 34,000  Level FlightAware ADS-B
Tue 06:42:16 AM 51.0050 -8.0670 260° West 433 498 34,000  Level FlightAware ADS-B
Tue 06:43:05 AM 50.9870 -8.2260 260° West 432 497 34,000  Level FlightAware ADS-B
Tue 06:43:38 AM 50.9757 -8.3364 260° West 486 559 34,000  Level FlightAware UK
Tue 06:43:43 AM 50.9730 -8.3480 260° West 433 498 34,000  Level FlightAware ADS-B
Tue 06:44:27 AM 50.9570 -8.4840 259° West 429 494 34,000  Level FlightAware ADS-B
Tue 06:45:08 AM 50.9418 -8.6149 259° West 480 552 34,000  Level FlightAware UK
Tue 06:45:20 AM 50.9390 -8.6380 259° West 429 494 34,000  Level FlightAware ADS-B
Tue 06:45:59 AM 50.9240 -8.7690 260° West 429 494 34,000  Level FlightAware ADS-B
Tue 06:46:35 AM 50.9110 -8.8750 260° West 426 490 34,000  Level FlightAware ADS-B
Tue 06:46:38 AM 50.9090 -8.8920 260° West 488 562 34,000  Level FlightAware UK
Tue 06:47:08 AM 50.8963 -8.9833 260° West 484 557 34,000  Level FlightAware UK
Tue 06:47:23 AM 50.8930 -9.0260 260° West 422 486 34,000  Level FlightAware ADS-B
Tue 06:48:05 AM 50.8800 -9.1360 259° West 422 486 34,000  Level FlightAware ADS-B
Tue 06:48:43 AM 50.8630 -9.2670 258° West 423 487 34,000  Level FlightAware ADS-B
Tue 06:49:26 AM 50.8470 -9.3980 259° West 423 487 34,000  Level FlightAware ADS-B
Tue 06:50:10 AM 50.8330 -9.5150 259° West 423 487 34,000  Level FlightAware ADS-B
Tue 06:50:43 AM 50.8180 -9.6280 258° West 422 486 34,000  Level FlightAware ADS-B
Tue 06:51:25 AM 50.8020 -9.7570 259° West 423 487 34,000  Level FlightAware ADS-B
Tue 06:52:05 AM 50.7880 -9.8660 259° West 423 487 34,000  Level FlightAware ADS-B
Tue 06:52:53 AM 50.7670 -10.0230 258° West 424 488 34,000  Level FlightAware ADS-B
Tue 06:53:47 AM 50.7470 -10.1730 258° West 424 488 34,000  Level FlightAware ADS-B
Tue 06:54:29 AM 50.7290 -10.3160 259° West 424 488 34,000  Level FlightAware ADS-B
Tue 06:55:07 AM 50.7140 -10.4290 258° West 425 489 34,000  Level FlightAware ADS-B
Tue 06:55:48 AM 50.6990 -10.5350 257° West 425 489 34,000  Level FlightAware ADS-B
Tue 06:56:34 AM 50.6830 -10.6530 258° West 425 489 34,000  Level FlightAware ADS-B
Tue 06:57:20 AM 50.6670 -10.7720 258° West 425 489 34,000  Level FlightAware ADS-B
Tue 06:57:59 AM 50.6430 -10.9430 258° West 414 476 34,000  Level FlightAware ADS-B
Tue 06:58:41 AM 50.6270 -11.0560 257° West 413 475 34,000  Level FlightAware ADS-B
Tue 06:59:20 AM 50.6130 -11.1530 257° West 413 475 34,000  Level FlightAware ADS-B
Tue 06:59:56 AM 50.6000 -11.2430 257° West 413 475 34,000  Level FlightAware ADS-B
Tue 07:00:44 AM 50.5820 -11.3630 257° West 413 475 34,000  Level FlightAware ADS-B
Tue 07:01:19 AM 50.5690 -11.4500 257° West 413 475 34,000  Level FlightAware ADS-B
Tue 07:02:07 AM 50.5520 -11.5690 257° West 413 475 34,000  Level FlightAware ADS-B
Tue 07:02:44 AM 50.5380 -11.6620 257° West 413 475 34,000  Level FlightAware ADS-B
Tue 07:03:45 AM 50.5160 -11.8130 257° West 413 475 34,000  Level FlightAware ADS-B
Tue 07:04:22 AM 50.5020 -11.9050 257° West 413 475 34,000  Level FlightAware ADS-B
Tue 07:05:10 AM 50.4850 -12.0250 257° West 413 475 34,000  Level FlightAware ADS-B
Tue 07:05:45 AM 50.4720 -12.1120 257° West 413 475 34,000  Level FlightAware ADS-B
Tue 07:06:34 AM 50.4540 -12.2340 257° West 413 475 34,000  Level FlightAware ADS-B
Tue 07:07:11 AM 50.4410 -12.3260 258° West 413 475 34,000  Level FlightAware ADS-B
Tue 07:07:58 AM 50.4230 -12.4420 256° West 413 475 34,000  Level FlightAware ADS-B
Tue 07:10:00 AM 50.4692 -12.8064 281° West  Level Estimated
Tue 07:11:00 AM 50.4916 -12.9859 281° West  Level Estimated
Tue 07:12:00 AM 50.5136 -13.1655 281° West  Level Estimated
Tue 07:13:00 AM 50.5354 -13.3453 281° West  Level Estimated
Tue 07:14:00 AM 50.5569 -13.5253 281° West  Level Estimated
Tue 07:15:00 AM 50.5781 -13.7054 281° West  Level Estimated
Tue 07:16:00 AM 50.5991 -13.8857 280° West  Level Estimated
Tue 07:17:00 AM 50.6197 -14.0661 280° West  Level Estimated
Tue 07:18:00 AM 50.6401 -14.2467 280° West  Level Estimated
Tue 07:19:00 AM 50.6602 -14.4275 280° West  Level Estimated
Tue 07:20:00 AM 50.6801 -14.6084 280° West  Level Estimated
Tue 07:21:00 AM 50.6996 -14.7895 280° West  Level Estimated
Tue 07:22:00 AM 50.7189 -14.9707 280° West  Level Estimated
Tue 07:23:00 AM 50.7377 -15.1504 279° West  Level Estimated
Tue 07:24:00 AM 50.7562 -15.3303 279° West  Level Estimated
Tue 07:25:00 AM 50.7745 -15.5103 279° West  Level Estimated
Tue 07:26:00 AM 50.7925 -15.6904 279° West  Level Estimated
Tue 07:27:00 AM 50.8102 -15.8706 279° West  Level Estimated
Tue 07:28:00 AM 50.8276 -16.0510 279° West  Level Estimated
Tue 07:29:00 AM 50.8447 -16.2316 279° West  Level Estimated
Tue 07:30:00 AM 50.8616 -16.4122 278° West  Level Estimated
Tue 07:31:00 AM 50.8782 -16.5930 278° West  Level Estimated
Tue 07:32:00 AM 50.8945 -16.7740 278° West  Level Estimated
Tue 07:33:00 AM 50.9105 -16.9550 278° West  Level Estimated
Tue 07:34:00 AM 50.9263 -17.1362 278° West  Level Estimated
Tue 07:35:00 AM 50.9418 -17.3175 278° West  Level Estimated
Tue 07:36:00 AM 50.9570 -17.4989 278° West  Level Estimated
Tue 07:37:00 AM 50.9719 -17.6804 277° West  Level Estimated
Tue 07:38:00 AM 50.9865 -17.8621 277° West  Level Estimated
Tue 07:39:00 AM 51.0008 -18.0438 277° West  Level Estimated
Tue 07:40:00 AM 51.0149 -18.2257 277° West  Level Estimated
Tue 07:41:00 AM 51.0287 -18.4077 277° West  Level Estimated
Tue 07:42:00 AM 51.0422 -18.5898 277° West  Level Estimated
Tue 07:43:00 AM 51.0554 -18.7719 277° West  Level Estimated
Tue 07:44:00 AM 51.0683 -18.9543 277° West  Level Estimated
Tue 07:45:00 AM 51.0817 -19.1476 276° West  Level Estimated
Tue 07:46:00 AM 51.0948 -19.3412 276° West  Level Estimated
Tue 07:47:00 AM 51.1076 -19.5348 276° West  Level Estimated
Tue 07:48:00 AM 51.1200 -19.7285 276° West  Level Estimated
Tue 07:49:00 AM 51.1321 -19.9223 276° West  Level Estimated
Tue 07:50:00 AM 51.1439 -20.1163 276° West  Level Estimated
Tue 07:51:00 AM 51.1554 -20.3103 275° West  Level Estimated
Tue 07:51:00 AM 50.0000 -20.0000 249° West 443 510 34,000  Level ETMS Enhanced Traffic Management System
Tue 07:52:00 AM 51.1665 -20.5039 275° West  Level Estimated
Tue 07:53:00 AM 51.1773 -20.6976 275° West  Level Estimated
Tue 07:54:00 AM 51.1878 -20.8913 275° West  Level Estimated
Tue 07:55:00 AM 51.1980 -21.0852 275° West  Level Estimated
Tue 07:56:00 AM 51.2079 -21.2791 275° West  Level Estimated
Tue 07:57:00 AM 49.7357 -21.0706 249° West 443 510 34,000  Level FlightAware Transoceanic
Tue 07:58:00 AM 49.6907 -21.2478 248° West 443 510 34,000  Level FlightAware Transoceanic
Tue 07:59:00 AM 49.6454 -21.4248 248° West 443 510 34,000  Level FlightAware Transoceanic
Tue 08:00:00 AM 49.5998 -21.6014 248° West 443 510 34,000  Level FlightAware Transoceanic
Tue 08:01:00 AM 49.5540 -21.7777 248° West 443 510 34,000  Level FlightAware Transoceanic
Tue 08:02:00 AM 49.5079 -21.9537 248° West 443 510 34,000  Level FlightAware Transoceanic
Tue 08:03:00 AM 49.4616 -22.1293 248° West 443 510 34,000  Level FlightAware Transoceanic
Tue 08:04:00 AM 49.4150 -22.3046 248° West 443 510 34,000  Level FlightAware Transoceanic
Tue 08:05:00 AM 49.3681 -22.4796 248° West 443 510 34,000  Level FlightAware Transoceanic
Tue 08:06:00 AM 49.3209 -22.6542 247° West 443 510 34,000  Level FlightAware Transoceanic
Tue 08:07:00 AM 49.2735 -22.8285 247° West 443 510 34,000  Level FlightAware Transoceanic
Tue 08:08:00 AM 49.2258 -23.0024 247° West 443 510 34,000  Level FlightAware Transoceanic
Tue 08:09:00 AM 49.1779 -23.1761 247° West 443 510 34,000  Level FlightAware Transoceanic
Tue 08:10:00 AM 49.1297 -23.3493 247° West 443 510 34,000  Level FlightAware Transoceanic
Tue 08:11:00 AM 49.0813 -23.5223 247° West 443 510 34,000  Level FlightAware Transoceanic
Tue 08:12:00 AM 49.0326 -23.6949 247° West 443 510 34,000  Level FlightAware Transoceanic
Tue 08:13:00 AM 48.9836 -23.8672 247° West 443 510 34,000  Level FlightAware Transoceanic
Tue 08:14:00 AM 48.9344 -24.0391 246° West 443 510 34,000  Level FlightAware Transoceanic
Tue 08:15:00 AM 48.8849 -24.2107 246° West 443 510 34,000  Level FlightAware Transoceanic
Tue 08:16:00 AM 48.8352 -24.3820 246° West 443 510 34,000  Level FlightAware Transoceanic
Tue 08:17:00 AM 48.7852 -24.5529 246° West 443 510 34,000  Level FlightAware Transoceanic
Tue 08:18:00 AM 48.7350 -24.7234 246° West 443 510 34,000  Level FlightAware Transoceanic
Tue 08:19:00 AM 48.6845 -24.8937 246° West 443 510 34,000  Level FlightAware Transoceanic
Tue 08:20:00 AM 48.6338 -25.0636 246° West 443 510 34,000  Level FlightAware Transoceanic
Tue 08:21:00 AM 48.5828 -25.2331 245° Southwest 443 510 34,000  Level FlightAware Transoceanic
Tue 08:22:00 AM 48.5315 -25.4023 245° Southwest 443 510 34,000  Level FlightAware Transoceanic
Tue 08:23:00 AM 48.4800 -25.5712 245° Southwest 443 510 34,000  Level FlightAware Transoceanic
Tue 08:24:00 AM 48.4283 -25.7397 245° Southwest 443 510 34,000  Level FlightAware Transoceanic
Tue 08:25:00 AM 48.3764 -25.9079 245° Southwest 443 510 34,000  Level FlightAware Transoceanic
Tue 08:26:00 AM 48.3241 -26.0757 245° Southwest 443 510 34,000  Level FlightAware Transoceanic
Tue 08:27:00 AM 48.2717 -26.2432 245° Southwest 443 510 34,000  Level FlightAware Transoceanic
Tue 08:28:00 AM 48.2190 -26.4103 245° Southwest 443 510 34,000  Level FlightAware Transoceanic
Tue 08:29:00 AM 48.1660 -26.5771 244° Southwest 443 510 34,000  Level FlightAware Transoceanic
Tue 08:30:00 AM 48.1128 -26.7435 244° Southwest 443 510 34,000  Level FlightAware Transoceanic
Tue 08:31:00 AM 48.0594 -26.9097 244° Southwest 443 510 34,000  Level FlightAware Transoceanic
Tue 08:32:00 AM 48.0057 -27.0754 244° Southwest 443 510 34,000  Level FlightAware Transoceanic
Tue 08:33:00 AM 47.9518 -27.2408 244° Southwest 443 510 34,000  Level FlightAware Transoceanic
Tue 08:34:00 AM 47.8977 -27.4059 244° Southwest 443 510 34,000  Level FlightAware Transoceanic
Tue 08:35:00 AM 47.8433 -27.5706 244° Southwest 443 510 34,000  Level FlightAware Transoceanic
Tue 08:36:00 AM 47.7887 -27.7350 244° Southwest 443 510 34,000  Level FlightAware Transoceanic
Tue 08:37:00 AM 47.7339 -27.8990 243° Southwest 443 510 34,000  Level FlightAware Transoceanic
Tue 08:38:00 AM 47.6788 -28.0627 243° Southwest 443 510 34,000  Level FlightAware Transoceanic
Tue 08:39:00 AM 47.6235 -28.2261 243° Southwest 443 510 34,000  Level FlightAware Transoceanic
Tue 08:40:00 AM 47.5679 -28.3891 243° Southwest 443 510 34,000  Level FlightAware Transoceanic
Tue 08:41:00 AM 47.5122 -28.5517 243° Southwest 443 510 34,000  Level FlightAware Transoceanic
Tue 08:42:00 AM 47.4562 -28.7140 243° Southwest 443 510 34,000  Level FlightAware Transoceanic
Tue 08:43:00 AM 47.3999 -28.8760 243° Southwest 443 510 34,000  Level FlightAware Transoceanic
Tue 08:44:00 AM 47.3435 -29.0376 243° Southwest 443 510 34,000  Level FlightAware Transoceanic
Tue 08:45:00 AM 47.2868 -29.1989 243° Southwest 443 510 34,000  Level FlightAware Transoceanic
Tue 08:46:00 AM 47.2299 -29.3598 242° Southwest 443 510 34,000  Level FlightAware Transoceanic
Tue 08:47:00 AM 47.1727 -29.5203 242° Southwest 443 510 34,000  Level FlightAware Transoceanic
Tue 08:48:00 AM 47.1154 -29.6806 242° Southwest 443 510 34,000  Level FlightAware Transoceanic
Tue 08:49:00 AM 47.0578 -29.8405 242° Southwest 443 510 34,000 14 Level FlightAware Transoceanic
Tue 08:50:00 AM 47.0013 -29.9964 242° Southwest  Level FlightAware Approximate
Tue 08:51:00 AM 46.9445 -30.1520 242° Southwest  Level FlightAware Approximate
Tue 08:52:00 AM 47.0001 -30.1683 270° West  Level FlightAware Approximate
Tue 08:53:00 AM 46.9999 -30.3448 270° West  Level FlightAware Approximate
Tue 08:54:00 AM 46.9995 -30.5213 270° West  Level FlightAware Approximate
Tue 08:55:00 AM 46.9988 -30.6978 270° West  Level FlightAware Approximate
Tue 08:56:00 AM 46.9978 -30.8743 270° West  Level FlightAware Approximate
Tue 08:57:00 AM 46.9966 -31.0508 269° West  Level FlightAware Approximate
Tue 08:58:00 AM 46.9951 -31.2272 269° West  Level FlightAware Approximate
Tue 08:59:00 AM 46.9933 -31.4037 269° West  Level FlightAware Approximate
Tue 09:00:00 AM 46.9912 -31.5801 269° West  Level FlightAware Approximate
Tue 09:01:00 AM 46.9889 -31.7566 269° West  Level FlightAware Approximate
Tue 09:02:00 AM 46.9863 -31.9330 269° West  Level FlightAware Approximate
Tue 09:03:00 AM 46.9834 -32.1094 269° West  Level FlightAware Approximate
Tue 09:04:00 AM 46.9803 -32.2858 269° West  Level FlightAware Approximate
Tue 09:05:00 AM 46.9769 -32.4621 268° West  Level FlightAware Approximate
Tue 09:06:00 AM 46.9732 -32.6384 268° West  Level FlightAware Approximate
Tue 09:07:00 AM 46.9692 -32.8148 268° West  Level FlightAware Approximate
Tue 09:08:00 AM 46.9650 -32.9910 268° West  Level FlightAware Approximate
Tue 09:09:00 AM 46.9605 -33.1673 268° West  Level FlightAware Approximate
Tue 09:10:00 AM 46.9557 -33.3435 268° West  Level FlightAware Approximate
Tue 09:11:00 AM 46.9507 -33.5197 268° West  Level FlightAware Approximate
Tue 09:12:00 AM 46.9454 -33.6958 268° West  Level FlightAware Approximate
Tue 09:13:00 AM 46.9398 -33.8720 267° West  Level FlightAware Approximate
Tue 09:14:00 AM 46.9340 -34.0480 267° West  Level FlightAware Approximate
Tue 09:15:00 AM 46.9282 -34.2241 267° West  Level FlightAware Approximate
Tue 09:16:00 AM 46.9324 -34.4024 272° West  Level Estimated
Tue 09:17:00 AM 46.9364 -34.5807 272° West  Level Estimated
Tue 09:18:00 AM 46.9401 -34.7590 272° West  Level Estimated
Tue 09:19:00 AM 46.9435 -34.9373 272° West  Level Estimated
Tue 09:20:00 AM 46.9466 -35.1157 272° West  Level Estimated
Tue 09:21:00 AM 46.9495 -35.2941 271° West  Level Estimated
Tue 09:22:00 AM 46.9521 -35.4725 271° West  Level Estimated
Tue 09:23:00 AM 46.9544 -35.6509 271° West  Level Estimated
Tue 09:24:00 AM 46.9564 -35.8293 271° West  Level Estimated
Tue 09:25:00 AM 46.9582 -36.0078 271° West  Level Estimated
Tue 09:26:00 AM 46.9596 -36.1862 271° West  Level Estimated
Tue 09:27:00 AM 46.9608 -36.3647 271° West  Level Estimated
Tue 09:28:00 AM 46.9618 -36.5431 270° West  Level Estimated
Tue 09:29:00 AM 46.9624 -36.7216 270° West  Level Estimated
Tue 09:30:00 AM 46.9628 -36.9001 270° West  Level Estimated
Tue 09:31:00 AM 46.9628 -37.0786 270° West  Level Estimated
Tue 09:32:00 AM 46.9627 -37.2570 270° West  Level Estimated
Tue 09:33:00 AM 46.9622 -37.4355 270° West  Level Estimated
Tue 09:34:00 AM 46.9614 -37.6140 270° West  Level Estimated
Tue 09:35:00 AM 46.9604 -37.7925 270° West  Level Estimated
Tue 09:36:00 AM 46.9591 -37.9709 269° West  Level Estimated
Tue 09:37:00 AM 46.9576 -38.1494 269° West  Level Estimated
Tue 09:38:00 AM 46.9557 -38.3278 269° West  Level Estimated
Tue 09:39:00 AM 46.9536 -38.5062 269° West  Level Estimated
Tue 09:40:00 AM 46.9512 -38.6846 269° West  Level Estimated
Tue 09:41:00 AM 46.9485 -38.8630 269° West  Level Estimated
Tue 09:42:00 AM 46.9455 -39.0414 269° West  Level Estimated
Tue 09:43:00 AM 46.9423 -39.2197 269° West  Level Estimated
Tue 09:44:00 AM 46.9388 -39.3981 268° West  Level Estimated
Tue 09:45:00 AM 46.9350 -39.5764 268° West  Level Estimated
Tue 09:46:00 AM 46.9309 -39.7547 268° West  Level Estimated
Tue 09:47:00 AM 46.9265 -39.9329 268° West  Level Estimated
Tue 09:48:00 AM 46.9219 -40.1113 268° West  Level Estimated
Tue 09:49:00 AM 46.9170 -40.2896 268° West  Level Estimated
Tue 09:50:00 AM 46.9118 -40.4680 268° West  Level Estimated
Tue 09:51:00 AM 46.9064 -40.6462 267° West  Level Estimated
Tue 09:52:00 AM 46.9006 -40.8245 267° West  Level Estimated
Tue 09:53:00 AM 46.8946 -41.0027 267° West  Level Estimated
Tue 09:54:00 AM 46.8883 -41.1808 267° West  Level Estimated
Tue 09:55:00 AM 46.8818 -41.3590 267° West  Level Estimated
Tue 09:56:00 AM 46.8749 -41.5370 267° West  Level Estimated
Tue 09:57:00 AM 46.8678 -41.7151 267° West  Level Estimated
Tue 09:58:00 AM 46.8604 -41.8930 267° West  Level Estimated
Tue 09:58:14 AM 43.8500 -42.2000 264° West 488 562 35,000  Level New York Oceanic (ODAPS)
Tue 09:59:00 AM 46.8528 -42.0710 266° West  Level Estimated
Tue 10:00:00 AM 46.8448 -42.2489 266° West  Level Estimated
Tue 10:01:00 AM 46.8366 -42.4267 266° West  Level Estimated
Tue 10:02:00 AM 46.8281 -42.6044 266° West  Level Estimated
Tue 10:03:00 AM 46.8193 -42.7822 266° West  Level Estimated
Tue 10:04:00 AM 43.7613 -43.3268 263° West 488 562 35,000  Level FlightAware Transoceanic
Tue 10:05:00 AM 43.7454 -43.5143 263° West 488 562 35,000  Level FlightAware Transoceanic
Tue 10:06:00 AM 43.7292 -43.7016 263° West 488 562 35,000  Level FlightAware Transoceanic
Tue 10:07:00 AM 43.7128 -43.8889 263° West 488 562 35,000  Level FlightAware Transoceanic
Tue 10:08:00 AM 43.6960 -44.0760 263° West 488 562 35,000  Level FlightAware Transoceanic
Tue 10:09:00 AM 43.6789 -44.2631 263° West 488 562 35,000  Level FlightAware Transoceanic
Tue 10:10:00 AM 43.6615 -44.4500 263° West 488 562 35,000  Level FlightAware Transoceanic
Tue 10:11:00 AM 43.6438 -44.6369 262° West 488 562 35,000  Level FlightAware Transoceanic
Tue 10:11:39 AM 43.6333 -44.8333 262° West 485 558 35,000  Level New York Oceanic (ODAPS)
Tue 10:12:00 AM 43.6258 -44.8236 262° West 488 562 35,000  Level FlightAware Transoceanic
Tue 10:13:00 AM 43.6075 -45.0102 262° West 488 562 35,000  Level FlightAware Transoceanic
Tue 10:14:00 AM 43.5889 -45.1967 262° West 488 562 35,000  Level FlightAware Transoceanic
Tue 10:15:00 AM 43.5700 -45.3831 262° West 488 562 35,000  Level FlightAware Transoceanic
Tue 10:16:00 AM 43.5508 -45.5694 262° West 488 562 35,000  Level FlightAware Transoceanic
Tue 10:17:00 AM 43.5312 -45.7555 262° West 488 562 35,000  Level FlightAware Transoceanic
Tue 10:18:00 AM 43.5173 -45.9493 261° West 485 558 35,000  Level FlightAware Transoceanic
Tue 10:19:00 AM 43.4969 -46.1348 261° West 485 558 35,000  Level FlightAware Transoceanic
Tue 10:20:00 AM 43.4762 -46.3203 261° West 485 558 35,000  Level FlightAware Transoceanic
Tue 10:21:00 AM 43.4552 -46.5056 261° West 485 558 35,000  Level FlightAware Transoceanic
Tue 10:22:00 AM 43.4339 -46.6908 261° West 485 558 35,000  Level FlightAware Transoceanic
Tue 10:23:00 AM 43.4123 -46.8758 261° West 485 558 35,000  Level FlightAware Transoceanic
Tue 10:24:00 AM 43.3904 -47.0607 261° West 485 558 35,000  Level FlightAware Transoceanic
Tue 10:25:00 AM 43.3682 -47.2455 261° West 485 558 35,000  Level FlightAware Transoceanic
Tue 10:25:34 AM 43.3500 -47.3667 261° West 471 542 35,000  Level New York Oceanic (ODAPS)
Tue 10:26:00 AM 43.3457 -47.4301 260° West 485 558 35,000  Level FlightAware Transoceanic
Tue 10:27:00 AM 43.3230 -47.6147 260° West 485 558 35,000  Level FlightAware Transoceanic
Tue 10:28:00 AM 43.2999 -47.7990 260° West 485 558 35,000  Level FlightAware Transoceanic
Tue 10:29:00 AM 43.2765 -47.9832 260° West 485 558 35,000  Level FlightAware Transoceanic
Tue 10:30:00 AM 43.2528 -48.1673 260° West 485 558 35,000  Level FlightAware Transoceanic
Tue 10:31:00 AM 43.2173 -48.4236 260° West 471 542 35,000  Level FlightAware Transoceanic
Tue 10:32:00 AM 43.1942 -48.5993 260° West 471 542 35,000  Level FlightAware Transoceanic
Tue 10:33:00 AM 43.1708 -48.7749 260° West 471 542 35,000  Level FlightAware Transoceanic
Tue 10:34:00 AM 43.1472 -48.9503 259° West 471 542 35,000  Level FlightAware Transoceanic
Tue 10:35:00 AM 43.1234 -49.1256 259° West 471 542 35,000  Level FlightAware Transoceanic
Tue 10:36:00 AM 43.0992 -49.3008 259° West 471 542 35,000  Level FlightAware Transoceanic
Tue 10:37:00 AM 43.0748 -49.4758 259° West 471 542 35,000  Level FlightAware Transoceanic
Tue 10:38:00 AM 43.0502 -49.6507 259° West 471 542 35,000  Level FlightAware Transoceanic
Tue 10:39:00 AM 43.0252 -49.8254 259° West 471 542 35,000  Level FlightAware Transoceanic
Tue 10:39:26 AM 43.0333 -49.7833 258° West 459 528 35,000  Level New York Oceanic (ODAPS)
Tue 10:40:00 AM 43.0000 -50.0000 273° West 471 542 35,000  Level FlightAware Transoceanic
Tue 10:40:47 AM 43.0000 -50.0000 273° West 457 526 35,000  Level New York Oceanic (ODAPS)
Tue 10:41:00 AM 43.0070 -50.1670 273° West 471 542 35,000  Level FlightAware Transoceanic
Tue 10:42:00 AM 43.0138 -50.3340 273° West 471 542 35,000  Level FlightAware Transoceanic
Tue 10:43:00 AM 43.0204 -50.5010 273° West 471 542 35,000  Level FlightAware Transoceanic
Tue 10:44:00 AM 43.0266 -50.6681 273° West 471 542 35,000  Level FlightAware Transoceanic
Tue 10:45:00 AM 43.0327 -50.8352 273° West 459 528 35,000  Level FlightAware Transoceanic
Tue 10:46:00 AM 43.0385 -51.0023 273° West 459 528 35,000  Level FlightAware Transoceanic
Tue 10:47:00 AM 43.0400 -51.0469 273° West 457 526 35,000  Level FlightAware Transoceanic
Tue 10:48:00 AM 43.0458 -51.2215 273° West 457 526 35,000  Level FlightAware Transoceanic
Tue 10:49:00 AM 43.0512 -51.3962 272° West 457 526 35,000  Level FlightAware Transoceanic
Tue 10:50:00 AM 43.0564 -51.5709 272° West 457 526 35,000  Level FlightAware Transoceanic
Tue 10:51:00 AM 43.0614 -51.7456 272° West 457 526 35,000  Level FlightAware Transoceanic
Tue 10:52:00 AM 43.0661 -51.9203 272° West 457 526 35,000  Level FlightAware Transoceanic
Tue 10:53:00 AM 43.0705 -52.0951 272° West 457 526 35,000 779 Level FlightAware Transoceanic
Tue 10:53:17 AM 43.0667 -52.1500 272° West 448 516 36,000  Climbing New York Oceanic (ODAPS)
Tue 10:54:00 AM 43.0746 -52.2698 272° West 457 526 35,000 -583 Descending FlightAware Transoceanic
Tue 10:55:00 AM 43.0785 -52.4446 272° West 457 526 35,000  Level FlightAware Transoceanic
Tue 10:56:00 AM 43.0821 -52.6195 272° West 457 526 35,000  Level FlightAware Transoceanic
Tue 10:57:00 AM 43.0855 -52.7943 271° West 457 526 35,000  Level FlightAware Transoceanic
Tue 10:58:00 AM 43.0886 -52.9692 271° West 457 526 35,000 500 Level FlightAware Transoceanic
Tue 10:59:00 AM 43.0873 -53.1584 271° West 448 516 36,000 500 Climbing FlightAware Transoceanic
Tue 11:00:00 AM 43.0899 -53.3265 271° West 448 516 36,000  Level FlightAware Transoceanic
Tue 11:01:00 AM 43.0923 -53.4947 271° West 448 516 36,000  Level FlightAware Transoceanic
Tue 11:02:00 AM 43.0944 -53.6628 271° West 448 516 36,000  Level FlightAware Transoceanic
Tue 11:03:00 AM 43.0962 -53.8310 271° West 448 516 36,000  Level FlightAware Transoceanic
Tue 11:04:00 AM 43.0978 -53.9992 271° West 448 516 36,000  Level FlightAware Transoceanic
Tue 11:05:00 AM 43.0992 -54.1674 271° West 448 516 36,000  Level FlightAware Transoceanic
Tue 11:06:00 AM 43.1003 -54.3355 270° West 448 516 36,000  Level FlightAware Transoceanic
Tue 11:07:00 AM 43.1011 -54.5037 270° West 448 516 36,000  Level FlightAware Transoceanic
Tue 11:07:13 AM 43.1000 -54.4333 270° West 441 507 36,000  Level New York Oceanic (ODAPS)
Tue 11:08:00 AM 43.1018 -54.6719 270° West 448 516 36,000  Level FlightAware Transoceanic
Tue 11:09:00 AM 43.1021 -54.8401 270° West 448 516 36,000  Level FlightAware Transoceanic
Tue 11:10:00 AM 43.1022 -55.0083 270° West 448 516 36,000  Level FlightAware Transoceanic
Tue 11:11:00 AM 43.1021 -55.1765 270° West 448 516 36,000  Level FlightAware Transoceanic
Tue 11:12:00 AM 43.1018 -55.3447 270° West 448 516 36,000  Level FlightAware Transoceanic
Tue 11:13:00 AM 43.1009 -55.4146 270° West 441 507 36,000  Level FlightAware Transoceanic
Tue 11:14:00 AM 43.1003 -55.5781 270° West 441 507 36,000  Level FlightAware Transoceanic
Tue 11:15:00 AM 43.0994 -55.7417 270° West 441 507 36,000  Level FlightAware Transoceanic
Tue 11:16:00 AM 43.0983 -55.9052 269° West 441 507 36,000  Level FlightAware Transoceanic
Tue 11:17:00 AM 43.0969 -56.0687 269° West 441 507 36,000  Level FlightAware Transoceanic
Tue 11:18:00 AM 43.0953 -56.2322 269° West 441 507 36,000  Level FlightAware Transoceanic
Tue 11:19:00 AM 43.0935 -56.3957 269° West 441 507 36,000  Level FlightAware Transoceanic
Tue 11:20:00 AM 43.0915 -56.5592 269° West 441 507 36,000  Level FlightAware Transoceanic
Tue 11:21:00 AM 43.0892 -56.7227 269° West 441 507 36,000  Level FlightAware Transoceanic
Tue 11:21:57 AM 43.1167 -56.8833 268° West 430 495 36,000  Level Moncton Center
Tue 11:22:00 AM 43.0867 -56.8862 269° West 441 507 36,000  Level FlightAware Transoceanic
Tue 11:22:18 AM 43.1000 -56.7500 268° West 438 504 36,000  Level New York Oceanic (ODAPS)
Tue 11:22:34 AM 43.1000 -56.8667 268° West 443 510 36,000  Level New York Oceanic (ODAPS)
Tue 11:23:00 AM 43.0839 -57.0496 269° West 441 507 36,000  Level FlightAware Transoceanic
Tue 11:23:57 AM 43.1000 -57.2167 268° West 430 495 36,000  Level Moncton Center
Tue 11:24:00 AM 43.0809 -57.2131 269° West 441 507 36,000  Level FlightAware Transoceanic
Tue 11:24:57 AM 43.0833 -57.4000 263° West 430 495 36,000  Level Moncton Center
Tue 11:25:00 AM 43.0777 -57.3765 268° West 441 507 36,000  Level FlightAware Transoceanic
Tue 11:25:57 AM 43.0667 -57.5500 261° West 440 506 36,000  Level Moncton Center
Tue 11:26:00 AM 43.0743 -57.5399 268° West 441 507 36,000  Level FlightAware Transoceanic
Tue 11:26:57 AM 43.0667 -57.7167 270° West 440 506 36,000  Level Moncton Center
Tue 11:27:00 AM 43.0706 -57.7033 268° West 441 507 36,000  Level FlightAware Transoceanic
Tue 11:27:57 AM 43.0500 -57.9000 263° West 440 506 36,000  Level Moncton Center
Tue 11:28:57 AM 43.0500 -58.0667 270° West 450 518 36,000  Level Moncton Center
Tue 11:29:57 AM 43.0500 -58.2167 270° West 440 506 36,000  Level Moncton Center
Tue 11:31:57 AM 43.0500 -58.5667 270° West 430 495 36,000  Level Moncton Center
Tue 11:32:57 AM 43.0333 -58.7333 262° West 440 506 36,000  Level Moncton Center
Tue 11:33:57 AM 43.0333 -58.8833 270° West 440 506 36,000  Level Moncton Center
Tue 11:34:57 AM 43.0167 -59.0500 262° West 450 518 36,000  Level Moncton Center
Tue 11:35:57 AM 43.0167 -59.2333 270° West 450 518 36,000  Level Moncton Center
Tue 11:36:57 AM 43.0000 -59.4000 262° West 440 506 36,000  Level Moncton Center
Tue 11:37:57 AM 43.0000 -59.5833 270° West 450 518 36,000  Level Moncton Center
Tue 11:38:57 AM 43.0000 -59.7333 270° West 450 518 36,000  Level Moncton Center
Tue 11:39:57 AM 43.0000 -59.9167 270° West 440 506 36,000  Level Moncton Center
Tue 11:40:57 AM 42.9833 -60.0833 262° West 440 506 36,000  Level Moncton Center
Tue 11:41:57 AM 42.9500 -60.2500 255° West 450 518 36,000  Level Moncton Center
Tue 11:42:57 AM 42.9500 -60.4000 270° West 450 518 36,000  Level Moncton Center
Tue 11:43:57 AM 42.9333 -60.5833 263° West 440 506 36,000  Level Moncton Center
Tue 11:44:57 AM 42.9167 -60.7500 262° West 440 506 36,000  Level Moncton Center
Tue 11:45:57 AM 42.9000 -60.9167 262° West 440 506 36,000  Level Moncton Center
Tue 11:46:57 AM 42.8833 -61.1000 263° West 450 518 36,000  Level Moncton Center
Tue 11:47:57 AM 42.8667 -61.2500 261° West 450 518 36,000  Level Moncton Center
Tue 11:48:57 AM 42.8667 -61.4333 270° West 450 518 36,000  Level Moncton Center
Tue 11:49:57 AM 42.8500 -61.6000 262° West 450 518 36,000  Level Moncton Center
Tue 11:50:57 AM 42.8167 -61.7500 253° West 440 506 36,000  Level Moncton Center
Tue 11:51:57 AM 42.8000 -61.9167 262° West 450 518 36,000  Level Moncton Center
Tue 11:52:57 AM 42.8000 -62.1000 270° West 450 518 36,000  Level Moncton Center
Tue 11:53:57 AM 42.7833 -62.2667 262° West 450 518 36,000  Level Moncton Center
Tue 11:54:57 AM 42.7500 -62.4333 255° West 440 506 36,000  Level Moncton Center
Tue 11:55:57 AM 42.7333 -62.6000 262° West 450 518 36,000  Level Moncton Center
Tue 11:56:57 AM 42.7167 -62.7667 262° West 450 518 36,000  Level Moncton Center
Tue 11:57:57 AM 42.7000 -62.9500 263° West 450 518 36,000  Level Moncton Center
Tue 11:58:57 AM 42.6833 -63.1000 261° West 450 518 36,000  Level Moncton Center
Tue 11:59:57 AM 42.6667 -63.2667 262° West 450 518 36,000  Level Moncton Center
Tue 12:00:57 PM 42.6500 -63.4500 263° West 450 518 36,000  Level Moncton Center
Tue 12:01:57 PM 42.6333 -63.6000 261° West 450 518 36,000  Level Moncton Center
Tue 12:02:57 PM 42.6167 -63.7833 263° West 450 518 36,000  Level Moncton Center
Tue 12:03:57 PM 42.5833 -63.9500 255° West 450 518 36,000  Level Moncton Center
Tue 12:04:57 PM 42.5667 -64.1333 263° West 450 518 36,000  Level Moncton Center
Tue 12:05:57 PM 42.5500 -64.2833 261° West 450 518 36,000  Level Moncton Center
Tue 12:06:57 PM 42.5333 -64.4667 263° West 450 518 36,000  Level Moncton Center
Tue 12:07:57 PM 42.5000 -64.6167 253° West 450 518 36,000  Level Moncton Center
Tue 12:08:57 PM 42.4833 -64.8000 263° West 450 518 36,000  Level Moncton Center
Tue 12:09:57 PM 42.4667 -64.9667 262° West 460 529 36,000  Level Moncton Center
Tue 12:10:57 PM 42.4500 -65.1500 263° West 460 529 36,000  Level Moncton Center
Tue 12:11:57 PM 42.4167 -65.3000 253° West 450 518 36,000  Level Moncton Center
Tue 12:12:57 PM 42.4000 -65.4833 263° West 460 529 36,000  Level Moncton Center
Tue 12:13:57 PM 42.3833 -65.6333 261° West 450 518 36,000  Level Moncton Center
Tue 12:14:57 PM 42.3500 -65.8167 256° West 460 529 36,000  Level Moncton Center
Tue 12:15:57 PM 42.3167 -65.9833 255° West 460 529 36,000  Level Moncton Center
Tue 12:16:57 PM 42.3000 -66.1333 262° West 450 518 36,000  Level Moncton Center
Tue 12:22:43 PM 42.1940 -67.1210 262° West 460 529 36,000  Level FlightAware ADS-B
Tue 12:23:21 PM 42.1900 -67.2250 267° West 460 529 36,000  Level FlightAware ADS-B
Tue 12:24:03 PM 42.1870 -67.3560 268° West 460 529 36,000  Level FlightAware ADS-B
Tue 12:24:48 PM 42.1830 -67.4740 267° West 459 528 36,000  Level FlightAware ADS-B
Tue 12:25:28 PM 42.1780 -67.6000 267° West 458 527 36,000  Level FlightAware ADS-B
Tue 12:26:16 PM 42.1750 -67.7130 268° West 458 527 36,000  Level FlightAware ADS-B
Tue 12:26:53 PM 42.1700 -67.8410 267° West 460 529 36,000  Level FlightAware ADS-B
Tue 12:27:29 PM 42.1660 -67.9440 267° West 460 529 36,000  Level FlightAware ADS-B
Tue 12:28:08 PM 42.1610 -68.0560 267° West 460 529 36,000  Level FlightAware ADS-B
Tue 12:28:53 PM 42.1560 -68.1840 267° West 460 529 36,000  Level FlightAware ADS-B
Tue 12:29:28 PM 42.1520 -68.2860 267° West 459 528 36,000  Level FlightAware ADS-B
Tue 12:30:23 PM 42.1460 -68.4420 267° West 458 527 36,000  Level FlightAware ADS-B
Tue 12:31:08 PM 42.1400 -68.5680 266° West 459 528 36,000  Level FlightAware ADS-B
Tue 12:31:43 PM 42.1360 -68.6700 267° West 457 526 36,000  Level FlightAware ADS-B
Tue 12:32:23 PM 42.1310 -68.7820 267° West 456 525 36,000  Level FlightAware ADS-B
Tue 12:33:03 PM 42.1250 -68.8970 266° West 455 524 36,000  Level FlightAware ADS-B
Tue 12:33:48 PM 42.1190 -69.0220 266° West 455 524 36,000  Level FlightAware ADS-B
Tue 12:34:23 PM 42.1150 -69.1240 267° West 455 524 36,000  Level FlightAware ADS-B
Tue 12:35:13 PM 42.1080 -69.2640 266° West 455 524 36,000  Level FlightAware ADS-B
Tue 12:35:54 PM 42.1020 -69.3780 266° West 456 525 36,000  Level FlightAware ADS-B
Tue 12:36:43 PM 42.0950 -69.5180 266° West 457 526 36,000  Level FlightAware ADS-B
Tue 12:37:23 PM 42.0890 -69.6270 266° West 457 526 36,000  Level FlightAware ADS-B
Tue 12:38:03 PM 42.0830 -69.7420 266° West 458 527 36,000  Level FlightAware ADS-B
Tue 12:38:48 PM 42.0760 -69.8730 266° West 458 527 36,000  Level FlightAware ADS-B
Tue 12:39:28 PM 42.0690 -69.9870 265° West 458 527 36,000  Level FlightAware ADS-B
Tue 12:40:13 PM 42.0620 -70.1120 266° West 456 525 36,000  Level FlightAware ADS-B
Tue 12:40:53 PM 42.0560 -70.2270 266° West 455 524 36,000  Level FlightAware ADS-B
Tue 12:41:33 PM 42.0490 -70.3390 265° West 455 524 36,000  Level FlightAware ADS-B
Tue 12:42:08 PM 42.0380 -70.4340 261° West 450 518 36,000  Level FlightAware ADS-B
Tue 12:42:48 PM 42.0090 -70.5400 250° West 447 514 36,000  Level FlightAware ADS-B
Tue 12:43:28 PM 41.9780 -70.6380 247° West 449 517 36,000  Level FlightAware ADS-B
Tue 12:44:24 PM 41.9310 -70.7840 247° West 449 517 36,000 -107 Level FlightAware ADS-B
Tue 12:45:20 PM 41.8870 -70.9160 246° West 442 509 35,800 -641 Descending FlightAware ADS-B
Tue 12:46:07 PM 41.8260 -71.0310 235° Southwest 442 509 34,900 -1,059 Descending FlightAware ADS-B
Tue 12:47:02 PM 41.7540 -71.1490 231° Southwest 445 512 34,000 -947 Descending FlightAware ADS-B
Tue 12:47:42 PM 41.7020 -71.2360 231° Southwest 445 512 33,400 -918 Descending FlightAware ADS-B
Tue 12:48:27 PM 41.6430 -71.3330 231° Southwest 440 506 32,700 -1,412 Descending FlightAware ADS-B
Tue 12:49:07 PM 41.5910 -71.4180 231° Southwest 439 505 31,400 -1,931 Descending FlightAware ADS-B
Tue 12:49:54 PM 41.5350 -71.5100 231° Southwest 421 484 29,900 -2,047 Descending FlightAware ADS-B
Tue 12:50:32 PM 41.4860 -71.5910 231° Southwest 412 474 28,500 -1,360 Descending FlightAware ADS-B
Tue 12:51:09 PM 41.4460 -71.6540 230° Southwest 415 478 28,200 -212 Descending FlightAware ADS-B
Tue 12:51:57 PM 41.3960 -71.7340 230° Southwest 415 478 28,200 -1,958 Level FlightAware ADS-B
Tue 12:52:44 PM 41.3503 -71.8069 230° Southwest 421 484 25,100 -1,386 Descending Boston Center
Tue 12:57:52 PM 41.0180 -72.2890 230° Southwest 315 362 20,000 -1,188 Descending FlightAware ADS-B
Tue 12:59:18 PM 40.9900 -72.4570 258° West 304 350 17,300 -1,790 Descending FlightAware ADS-B
Tue 12:59:56 PM 40.9780 -72.5220 256° West 297 342 16,300 -1,026 Descending FlightAware ADS-B
Tue 01:00:34 PM 40.9670 -72.5820 256° West 296 341 16,000 -1,794 Descending FlightAware ADS-B
Tue 01:01:33 PM 40.9480 -72.6940 257° West 287 330 13,400 -2,139 Descending FlightAware ADS-B
Tue 01:02:29 PM 40.9310 -72.7840 256° West 282 325 11,900 -1,352 Descending FlightAware ADS-B
Tue 01:02:44 PM 40.9190 -72.8070 235° Southwest 276 318 11,800 -429 Descending FlightAware ADS-B
Tue 01:03:25 PM 40.8810 -72.8460 218° Southwest 283 326 11,500 -988 Descending FlightAware ADS-B
Tue 01:04:09 PM 40.8310 -72.8940 216° Southwest 283 326 10,400 -1,406 Descending FlightAware ADS-B
Tue 01:04:29 PM 40.8110 -72.9120 214° Southwest 283 326 10,000 -1,174 Descending FlightAware ADS-B
Tue 01:04:55 PM 40.7860 -72.9370 217° Southwest 281 323 9,500 -1,158 Descending FlightAware ADS-B
Tue 01:05:26 PM 40.7550 -72.9700 219° Southwest 275 316 8,900 -1,222 Descending FlightAware ADS-B
Tue 01:05:49 PM 40.7350 -72.9960 225° Southwest 272 313 8,400 -1,286 Descending FlightAware ADS-B
Tue 01:06:22 PM 40.7030 -73.0390 226° Southwest 265 305 7,700 -1,200 Descending FlightAware ADS-B
Tue 01:06:34 PM 40.6930 -73.0530 227° Southwest 265 305 7,500 -1,297 Descending FlightAware ADS-B
Tue 01:06:59 PM 40.6710 -73.0830 226° Southwest 264 304 6,900 -1,404 Descending FlightAware ADS-B
Tue 01:07:21 PM 40.6540 -73.1080 228° Southwest 263 303 6,400 -1,250 Descending FlightAware ADS-B
Tue 01:07:47 PM 40.6320 -73.1380 226° Southwest 262 302 5,900 -1,200 Descending FlightAware ADS-B
Tue 01:08:06 PM 40.6200 -73.1640 239° Southwest 262 302 5,500 -511 Descending FlightAware ADS-B
Tue 01:08:34 PM 40.6100 -73.2000 250° West 262 302 5,500 -1,286 Level FlightAware ADS-B
Tue 01:08:48 PM 40.6370 -73.2240 326° Northwest 275 316 4,600 -2,154 Descending FlightAware ADS-B
Tue 01:09:13 PM 40.6590 -73.2570 311° West 273 314 4,100 -1,091 Descending FlightAware ADS-B
Tue 01:09:32 PM 40.6740 -73.2800 311° West 271 312 3,800 -383 Descending FlightAware ADS-B
Tue 01:10:00 PM 40.6960 -73.3150 310° West 271 312 3,800 -316 Level FlightAware ADS-B
Tue 01:10:29 PM 40.7190 -73.3490 312° West 271 312 3,500 -632 Descending FlightAware ADS-B
Tue 01:10:57 PM 40.7440 -73.3870 311° West 272 313 3,200 -477 Descending FlightAware ADS-B
Tue 01:11:57 PM 40.7930 -73.4600 312° West 262 302 2,800 -400 Descending FlightAware ADS-B
Tue 01:12:12 PM 40.8050 -73.4780 311° West 250 288 2,700 -387 Descending FlightAware ADS-B
Tue 01:12:28 PM 40.8130 -73.4980 298° West 233 268 2,600 -692 Descending FlightAware ADS-B
Tue 01:12:38 PM 40.8140 -73.5130 275° West 227 261 2,400 -1,059 Descending FlightAware ADS-B
Tue 01:13:02 PM 40.8140 -73.5470 270° West 225 259 2,000 -692 Descending FlightAware ADS-B
Tue 01:13:30 PM 40.8060 -73.5820 253° West 222 255 1,800 -226 Descending FlightAware ADS-B
Tue 01:13:55 PM 40.7940 -73.6080 239° Southwest 207 238 1,800  Level FlightAware ADS-B
Tue 01:14:25 PM 40.7790 -73.6380 237° Southwest 175 201 1,800  Level FlightAware ADS-B
Tue 01:14:37 PM 40.7740 -73.6490 239° Southwest 173 199 1,800  Level FlightAware ADS-B
Tue 01:14:54 PM 40.7660 -73.6610 229° Southwest 171 197 1,800  Level FlightAware ADS-B
Tue 01:15:06 PM 40.7570 -73.6680 211° Southwest 171 197 1,800  Level FlightAware ADS-B
Tue 01:15:32 PM 40.7390 -73.6820 211° Southwest 171 197 1,800 -245 Level FlightAware ADS-B
Tue 01:15:55 PM 40.7240 -73.6940 211° Southwest 172 198 1,600 -857 Descending FlightAware ADS-B
Tue 01:16:07 PM 40.7150 -73.7000 207° Southwest 169 194 1,300 -857 Descending FlightAware ADS-B
Tue 01:16:37 PM 40.6960 -73.7150 211° Southwest 150 173 1,000 -724 Descending FlightAware ADS-B
Tue 01:17:05 PM 40.6790 -73.7280 210° Southwest 148 170 600 -873 Descending FlightAware ADS-B
Tue 01:17:32 PM 40.6630 -73.7410 212° Southwest 148 170 200 -889 Descending FlightAware ADS-B
Tue 01:18:02 PM 40.6450 -73.7550 211° Southwest 152 175 -400 Descending FlightAware ADS-B
Tue 01:18:29 PM 40.6320 -73.7650 210° Southwest 88 101  Level FlightAware ADS-B
Tue 01:18:39 PM 40.6300 -73.7670 217° Southwest 32 37  Level FlightAware ADS-B
Tue 01:18:59 PM 40.6290 -73.7690 237° Southwest 16 18  Level FlightAware ADS-B

Login

Don't have an account? Register now (free) for customized features, flight alerts, and more!